Time;durP1;ratioP1;P1;durP2;ratioP2;P2;SDS_P1;SDS_P2;PMS_P1;PMS_P2;Temp;Humidity;BMP_temperature;BMP_pressure;BME280_temperature;BME280_humidity;BME280_pressure;Samples;Min_cycle;Max_cycle;Signal;HPM_P1;HPM_P2
2022/05/03 00:02:15;;;;;;;2.70;2.50;;;8.20;99.90;;;;;;5123504;27;20243;-59
2022/05/03 00:04:56;;;;;;;2.67;2.47;;;8.20;99.90;;;;;;5123170;27;20240;-60
2022/05/03 00:07:28;;;;;;;5.00;3.10;;;8.20;99.90;;;;;;5123277;27;20233;-59
2022/05/03 00:10:04;;;;;;;3.53;2.77;;;8.20;99.90;;;;;;5123396;27;20846;-58
2022/05/03 00:12:35;;;;;;;4.30;2.90;;;8.10;99.90;;;;;;5123661;27;20237;-58
2022/05/03 00:15:06;;;;;;;3.77;2.80;;;8.10;99.90;;;;;;5124078;27;20247;-60
2022/05/03 00:17:35;;;;;;;3.13;2.43;;;8.10;99.90;;;;;;5123555;27;20260;-59
2022/05/03 00:20:04;;;;;;;2.97;2.67;;;8.00;99.90;;;;;;5124086;27;20241;-61
2022/05/03 00:22:35;;;;;;;4.53;2.83;;;8.00;99.90;;;;;;5123035;27;20233;-59
2022/05/03 00:25:05;;;;;;;3.40;2.77;;;7.90;99.90;;;;;;5123511;27;20241;-60
2022/05/03 00:27:35;;;;;;;3.63;2.47;;;8.00;99.90;;;;;;5123632;27;20886;-59
2022/05/03 00:30:06;;;;;;;3.87;2.93;;;8.00;99.90;;;;;;5123539;27;20289;-58
2022/05/03 00:32:35;;;;;;;3.83;3.10;;;7.90;99.90;;;;;;5122698;27;20325;-60
2022/05/03 00:35:04;;;;;;;3.80;2.90;;;7.90;99.90;;;;;;5123872;27;20233;-58
2022/05/03 00:37:32;;;;;;;4.17;3.00;;;7.80;99.90;;;;;;5123217;27;20311;-59
2022/05/03 00:40:00;;;;;;;3.27;2.60;;;7.90;99.90;;;;;;5123154;27;20229;-58
2022/05/03 00:42:36;;;;;;;3.20;2.80;;;7.80;99.90;;;;;;5122965;27;20248;-60
2022/05/03 00:45:10;;;;;;;4.57;2.70;;;7.80;99.90;;;;;;5123397;27;20241;-59
2022/05/03 00:47:50;;;;;;;3.03;2.73;;;7.80;99.90;;;;;;5123068;27;20320;-60
2022/05/03 00:50:36;;;;;;;5.67;2.80;;;7.70;99.90;;;;;;5123178;27;20796;-58
2022/05/03 00:53:11;;;;;;;4.03;2.80;;;7.80;99.90;;;;;;5121274;27;20738;-59
2022/05/03 00:56:05;;;;;;;3.03;2.67;;;7.80;99.90;;;;;;5123268;27;20243;-59
2022/05/03 00:58:56;;;;;;;3.40;2.93;;;7.80;99.90;;;;;;5122994;27;20232;-60
2022/05/03 01:01:31;;;;;;;5.63;2.90;;;7.70;99.90;;;;;;5122906;27;20241;-60
2022/05/03 01:04:11;;;;;;;4.40;2.93;;;7.70;99.90;;;;;;5121919;27;20224;-59
2022/05/03 01:06:54;;;;;;;3.63;2.63;;;7.60;99.90;;;;;;5122375;27;20229;-58
2022/05/03 01:09:31;;;;;;;4.87;3.20;;;7.70;99.90;;;;;;5122378;27;20251;-60
2022/05/03 01:12:11;;;;;;;5.23;2.83;;;7.60;99.90;;;;;;5121263;27;20297;-59
2022/05/03 01:14:56;;;;;;;3.00;2.70;;;7.60;99.90;;;;;;5122726;27;20770;-59
2022/05/03 01:17:32;;;;;;;4.13;3.00;;;7.60;99.90;;;;;;5121608;27;20244;-58
2022/05/03 01:20:05;;;;;;;4.80;3.00;;;7.60;99.90;;;;;;5122297;27;20591;-61
2022/05/03 01:23:04;;;;;;;4.17;2.93;;;7.50;99.90;;;;;;5121941;27;20298;-59
2022/05/03 01:26:08;;;;;;;3.23;2.63;;;7.50;99.90;;;;;;5121896;27;20363;-60
2022/05/03 01:29:07;;;;;;;3.73;3.00;;;7.40;99.90;;;;;;5121962;27;20741;-61
2022/05/03 01:31:36;;;;;;;3.00;2.70;;;7.40;99.90;;;;;;5121658;27;20233;-59
2022/05/03 01:34:07;;;;;;;2.63;2.43;;;7.40;99.90;;;;;;5121176;27;20241;-59
2022/05/03 01:36:43;;;;;;;3.80;2.73;;;7.30;99.90;;;;;;5121868;27;20241;-59
2022/05/03 01:39:21;;;;;;;5.90;2.83;;;7.40;99.90;;;;;;5122470;27;20289;-58
2022/05/03 01:41:57;;;;;;;3.87;2.80;;;7.30;99.90;;;;;;5122230;27;20775;-59
2022/05/03 01:44:38;;;;;;;3.30;3.00;;;7.40;99.90;;;;;;5121905;27;20299;-58
2022/05/03 01:47:18;;;;;;;3.07;2.73;;;7.40;99.90;;;;;;5122010;27;20333;-59
2022/05/03 01:53:11;;;;;;;2.57;2.37;;;7.40;99.90;;;;;;5120131;27;20704;-60
2022/05/03 01:56:11;;;;;;;2.83;2.50;;;7.40;99.90;;;;;;5121912;27;20237;-58
2022/05/03 01:58:54;;;;;;;3.00;2.70;;;7.30;99.90;;;;;;5121121;27;20243;-59
2022/05/03 02:01:44;;;;;;;3.03;2.73;;;7.40;99.90;;;;;;5121294;27;20229;-59
2022/05/03 02:04:37;;;;;;;3.27;2.77;;;7.40;99.90;;;;;;5121167;27;20859;-59
2022/05/03 02:07:07;;;;;;;3.37;2.80;;;7.30;99.90;;;;;;5121454;27;20240;-60
2022/05/03 02:10:01;;;;;;;3.47;3.00;;;7.30;99.90;;;;;;5121713;27;20819;-58
2022/05/03 02:12:29;;;;;;;3.97;3.00;;;7.20;99.90;;;;;;5121966;27;20787;-58
2022/05/03 02:15:03;;;;;;;3.57;3.00;;;7.20;99.90;;;;;;5121511;27;20596;-58
2022/05/03 02:17:53;;;;;;;5.23;3.20;;;7.10;99.90;;;;;;5121420;27;20241;-59
2022/05/03 02:20:47;;;;;;;4.73;3.00;;;7.10;99.90;;;;;;5121471;27;20241;-59
2022/05/03 02:23:25;;;;;;;3.37;3.00;;;7.10;99.90;;;;;;5120624;27;20251;-58
2022/05/03 02:26:06;;;;;;;3.30;2.30;;;7.10;99.90;;;;;;5120997;27;20240;-58
2022/05/03 02:28:40;;;;;;;4.20;2.50;;;7.10;99.90;;;;;;5120755;27;20871;-58
2022/05/03 02:31:13;;;;;;;3.30;2.80;;;7.10;99.90;;;;;;5121434;27;20315;-59
2022/05/03 02:33:48;;;;;;;8.17;3.10;;;7.10;99.90;;;;;;5121086;27;20707;-59
2022/05/03 02:36:18;;;;;;;3.03;2.73;;;7.00;99.90;;;;;;5120698;27;20240;-58
2022/05/03 02:38:51;;;;;;;3.63;3.20;;;7.00;99.90;;;;;;5121195;27;20233;-59
2022/05/03 02:41:22;;;;;;;4.27;2.90;;;7.00;99.90;;;;;;5102524;28;20703;-58
2022/05/03 02:43:51;;;;;;;4.10;2.83;;;7.00;99.90;;;;;;5120651;27;20430;-59
2022/05/03 02:46:43;;;;;;;4.53;3.33;;;6.90;99.90;;;;;;5121181;27;20715;-58
2022/05/03 02:49:19;;;;;;;4.13;2.67;;;6.90;99.90;;;;;;5120410;27;20241;-58
2022/05/03 02:51:53;;;;;;;3.50;2.80;;;6.90;99.90;;;;;;5118659;27;20241;-60
2022/05/03 02:54:32;;;;;;;4.40;3.37;;;7.00;99.90;;;;;;5121458;27;20224;-58
2022/05/03 02:57:12;;;;;;;3.37;2.87;;;6.90;99.90;;;;;;5120761;27;20237;-59
2022/05/03 03:02:36;;;;;;;3.80;3.40;;;6.90;99.90;;;;;;5119967;27;20244;-58
2022/05/03 03:05:08;;;;;;;4.13;2.70;;;6.90;99.90;;;;;;5121024;27;20245;-59
2022/05/03 03:07:53;;;;;;;3.20;2.90;;;6.90;99.90;;;;;;5120940;27;20247;-58
2022/05/03 03:10:26;;;;;;;5.30;3.03;;;6.90;99.90;;;;;;5121111;27;20241;-58
2022/05/03 03:13:10;;;;;;;6.87;2.87;;;6.80;99.90;;;;;;5120591;27;20241;-59
2022/05/03 03:15:41;;;;;;;3.10;2.80;;;6.80;99.90;;;;;;5120633;27;20229;-58
2022/05/03 03:18:14;;;;;;;4.23;3.30;;;6.70;99.90;;;;;;5120601;27;20229;-58
2022/05/03 03:20:46;;;;;;;3.30;2.67;;;6.70;99.90;;;;;;5120552;27;20241;-58
2022/05/03 03:23:18;;;;;;;4.10;2.83;;;6.80;99.90;;;;;;5120743;27;20237;-58
2022/05/03 03:25:48;;;;;;;3.67;3.20;;;6.80;99.90;;;;;;5120192;27;20324;-58
2022/05/03 03:28:21;;;;;;;3.97;3.57;;;6.70;99.90;;;;;;5120094;27;20815;-59
2022/05/03 03:30:51;;;;;;;6.57;3.23;;;6.80;99.90;;;;;;5121112;27;20830;-58
2022/05/03 03:33:20;;;;;;;4.57;3.20;;;6.70;99.90;;;;;;5119516;27;20229;-58
2022/05/03 03:35:51;;;;;;;4.77;3.20;;;6.70;99.90;;;;;;5120478;27;20328;-58
2022/05/03 03:38:24;;;;;;;4.87;3.17;;;6.70;99.90;;;;;;5120938;27;20286;-58
2022/05/03 03:40:52;;;;;;;4.43;3.00;;;6.70;99.90;;;;;;5123309;27;20341;-58
2022/05/03 03:43:20;;;;;;;5.13;3.60;;;6.70;99.90;;;;;;5123298;27;20671;-59
2022/05/03 03:45:49;;;;;;;5.07;2.93;;;6.70;99.90;;;;;;5124298;27;20243;-58
2022/05/03 03:48:17;;;;;;;6.57;3.70;;;6.70;99.90;;;;;;5123081;27;20244;-59
2022/05/03 03:50:45;;;;;;;5.93;4.07;;;6.70;99.90;;;;;;5123614;27;20241;-58
2022/05/03 03:53:16;;;;;;;5.73;4.30;;;6.60;99.90;;;;;;5123512;27;20247;-59
2022/05/03 03:55:46;;;;;;;5.40;4.07;;;6.70;99.90;;;;;;5122656;27;20323;-60
2022/05/03 03:58:14;;;;;;;6.93;4.50;;;6.80;99.90;;;;;;5122899;27;20233;-58
2022/05/03 04:00:43;;;;;;;7.63;4.73;;;6.70;99.90;;;;;;5123621;27;20305;-58
2022/05/03 04:03:11;;;;;;;5.37;4.70;;;6.80;99.90;;;;;;5122990;27;20241;-59
2022/05/03 04:05:40;;;;;;;5.93;4.60;;;6.80;99.90;;;;;;5124611;27;20240;-60
2022/05/03 04:08:08;;;;;;;6.30;4.83;;;6.90;99.90;;;;;;5124523;27;20852;-58
2022/05/03 04:10:37;;;;;;;8.47;5.53;;;6.90;99.90;;;;;;5124491;27;20231;-58
2022/05/03 04:13:07;;;;;;;7.57;5.07;;;6.90;99.90;;;;;;5123091;27;20241;-59
2022/05/03 04:15:36;;;;;;;6.97;5.00;;;7.00;99.90;;;;;;5123378;27;20743;-58
2022/05/03 04:18:07;;;;;;;6.90;5.90;;;7.00;99.90;;;;;;5123201;27;20266;-59
2022/05/03 04:20:35;;;;;;;6.57;5.83;;;7.10;99.90;;;;;;5123736;27;20612;-58
2022/05/03 04:23:03;;;;;;;9.93;6.20;;;7.10;99.90;;;;;;5122664;27;20237;-59
2022/05/03 04:25:32;;;;;;;7.13;6.00;;;7.20;99.90;;;;;;5124710;27;20241;-59
2022/05/03 04:28:02;;;;;;;8.00;6.43;;;7.20;99.90;;;;;;5123443;27;20244;-60
2022/05/03 04:30:30;;;;;;;8.27;6.30;;;7.20;99.90;;;;;;5123737;27;20237;-59
2022/05/03 04:32:58;;;;;;;9.03;6.77;;;7.30;99.90;;;;;;5122360;27;20595;-60
2022/05/03 04:35:26;;;;;;;8.00;6.60;;;7.30;99.90;;;;;;5123526;27;20585;-59
2022/05/03 04:37:54;;;;;;;11.13;6.97;;;7.30;99.90;;;;;;5123075;27;20905;-59
2022/05/03 04:40:22;;;;;;;10.73;7.20;;;7.30;99.90;;;;;;5124857;27;20290;-61
2022/05/03 04:42:51;;;;;;;10.00;6.63;;;7.40;99.90;;;;;;5124698;27;20328;-59
2022/05/03 04:45:21;;;;;;;11.07;7.47;;;7.40;99.90;;;;;;5123471;27;20791;-58
2022/05/03 04:47:49;;;;;;;10.93;7.30;;;7.40;99.90;;;;;;5122015;27;20229;-58
2022/05/03 04:50:17;;;;;;;12.30;8.03;;;7.60;99.90;;;;;;5122197;27;20711;-58
2022/05/03 04:52:46;;;;;;;12.57;7.93;;;7.60;99.90;;;;;;5121924;27;20738;-59
2022/05/03 04:55:15;;;;;;;11.73;8.73;;;7.70;99.90;;;;;;5122589;27;20328;-58
2022/05/03 04:57:43;;;;;;;11.90;8.53;;;7.60;99.90;;;;;;5122911;27;20237;-58
2022/05/03 05:00:11;;;;;;;12.43;9.23;;;7.60;99.90;;;;;;5122786;27;20332;-59
2022/05/03 05:02:41;;;;;;;11.60;8.70;;;7.60;99.90;;;;;;5123078;27;20233;-58
2022/05/03 05:05:09;;;;;;;10.73;8.80;;;7.70;99.90;;;;;;5123347;27;20229;-59
2022/05/03 05:07:38;;;;;;;9.97;8.47;;;7.70;99.90;;;;;;5123918;27;20224;-59
2022/05/03 05:10:26;;;;;;;10.73;8.37;;;7.70;99.90;;;;;;5122925;27;20244;-60
2022/05/03 05:12:55;;;;;;;10.60;9.27;;;7.90;99.90;;;;;;5121849;27;20241;-59
2022/05/03 05:15:24;;;;;;;12.10;9.40;;;7.80;99.90;;;;;;5122042;27;20233;-60
2022/05/03 05:17:54;;;;;;;11.30;8.67;;;7.90;99.90;;;;;;5122508;27;20241;-60
2022/05/03 05:20:24;;;;;;;10.50;8.93;;;7.90;99.90;;;;;;5122588;27;20249;-59
2022/05/03 05:22:52;;;;;;;10.43;9.33;;;8.10;99.90;;;;;;5121953;27;20909;-59
2022/05/03 05:25:40;;;;;;;11.57;9.60;;;8.10;99.90;;;;;;5100942;28;20597;-58
2022/05/03 05:28:09;;;;;;;10.93;9.53;;;8.10;99.90;;;;;;5100643;27;20677;-58
2022/05/03 05:30:37;;;;;;;12.23;9.80;;;8.20;99.90;;;;;;5101302;28;20357;-58
2022/05/03 05:33:06;;;;;;;11.23;9.80;;;8.30;99.90;;;;;;5098332;27;20253;-60
2022/05/03 05:35:35;;;;;;;13.07;10.00;;;8.30;99.90;;;;;;5100491;27;20237;-59
2022/05/03 05:38:04;;;;;;;11.93;9.83;;;8.40;99.90;;;;;;5100930;28;20727;-61
2022/05/03 05:40:32;;;;;;;13.87;10.30;;;8.40;99.90;;;;;;5101524;27;20320;-61
2022/05/03 05:43:02;;;;;;;11.77;10.57;;;8.40;99.90;;;;;;5102047;27;20294;-59
2022/05/03 05:45:30;;;;;;;12.17;10.50;;;8.40;99.90;;;;;;5101680;27;20732;-59
2022/05/03 05:47:58;;;;;;;18.13;11.50;;;8.40;99.90;;;;;;5101261;27;20238;-60
2022/05/03 05:50:28;;;;;;;13.93;10.67;;;8.40;99.90;;;;;;5101326;27;20238;-59
2022/05/03 05:55:42;;;;;;;15.87;11.90;;;8.50;99.90;;;;;;5102013;27;20320;-59
2022/05/03 05:58:11;;;;;;;14.73;11.57;;;8.50;99.90;;;;;;5101232;27;20245;-58
2022/05/03 06:00:39;;;;;;;15.33;12.30;;;8.60;99.90;;;;;;5110662;27;20775;-58
2022/05/03 06:03:07;;;;;;;15.53;12.00;;;8.60;99.90;;;;;;5120166;27;20270;-59
2022/05/03 06:05:37;;;;;;;14.27;12.60;;;8.70;99.90;;;;;;5121784;27;20221;-59
2022/05/03 06:08:06;;;;;;;15.83;13.43;;;8.70;99.90;;;;;;5121065;27;20241;-60
2022/05/03 06:10:34;;;;;;;15.00;12.37;;;8.70;99.90;;;;;;5121576;27;20321;-59
2022/05/03 06:13:03;;;;;;;14.97;12.43;;;8.60;99.90;;;;;;5121025;27;20312;-59
2022/05/03 06:15:31;;;;;;;16.53;12.63;;;8.60;99.90;;;;;;5121801;27;20320;-59
2022/05/03 06:18:01;;;;;;;15.03;12.87;;;8.70;99.90;;;;;;5101001;27;20237;-58
2022/05/03 06:20:29;;;;;;;15.70;12.83;;;8.70;99.90;;;;;;5101712;28;20368;-58
2022/05/03 06:22:58;;;;;;;14.97;13.00;;;8.70;99.90;;;;;;5100925;27;20328;-61
2022/05/03 06:25:27;;;;;;;16.33;13.40;;;8.70;99.90;;;;;;5101386;27;20588;-58
2022/05/03 06:27:55;;;;;;;16.83;13.07;;;8.70;99.90;;;;;;5100800;27;20242;-60
2022/05/03 06:30:23;;;;;;;16.20;12.67;;;8.80;99.90;;;;;;5101117;27;20242;-59
2022/05/03 06:32:51;;;;;;;16.37;13.40;;;8.80;99.90;;;;;;5103367;27;20763;-60
2022/05/03 06:35:21;;;;;;;15.53;13.70;;;8.90;99.90;;;;;;5121303;27;20235;-58
2022/05/03 06:37:49;;;;;;;15.70;12.93;;;9.00;99.90;;;;;;5121522;27;20265;-58
2022/05/03 06:40:18;;;;;;;16.07;13.20;;;9.10;99.90;;;;;;5121258;27;20233;-59
2022/05/03 06:42:46;;;;;;;17.07;14.00;;;9.10;99.90;;;;;;5120466;27;20226;-58
2022/05/03 06:45:15;;;;;;;17.70;13.83;;;9.10;99.90;;;;;;5122052;27;20229;-59
2022/05/03 06:47:45;;;;;;;17.57;14.53;;;9.10;99.90;;;;;;5122655;27;20244;-59
2022/05/03 06:50:13;;;;;;;17.07;13.77;;;9.00;99.90;;;;;;5122038;27;20347;-58
2022/05/03 06:52:42;;;;;;;17.50;14.33;;;9.10;99.90;;;;;;5121731;27;20233;-58
2022/05/03 06:55:11;;;;;;;17.60;14.40;;;9.00;99.90;;;;;;5121357;27;20235;-59
2022/05/03 06:57:40;;;;;;;16.83;14.03;;;9.00;99.90;;;;;;5121383;27;20596;-59
2022/05/03 07:00:10;;;;;;;17.37;14.07;;;9.10;99.90;;;;;;5121419;27;20233;-60
2022/05/03 07:02:38;;;;;;;17.27;14.10;;;9.10;99.90;;;;;;5120589;27;20229;-59
2022/05/03 07:05:07;;;;;;;17.47;14.63;;;9.10;99.90;;;;;;5121126;27;20241;-61
2022/05/03 07:07:36;;;;;;;19.10;14.30;;;9.10;99.90;;;;;;5121154;27;20669;-59
2022/05/03 07:10:05;;;;;;;19.33;15.33;;;9.10;99.90;;;;;;5120821;27;20271;-60
2022/05/03 07:12:33;;;;;;;21.57;15.20;;;9.20;99.90;;;;;;5122703;28;20245;-59
2022/05/03 07:15:05;;;;;;;16.23;14.33;;;9.20;99.90;;;;;;5123527;27;20234;-59
2022/05/03 07:23:06;;;;;;;21.33;15.13;;;9.30;99.90;;;;;;5125111;27;20249;-59
2022/05/03 07:25:35;;;;;;;19.67;14.77;;;9.40;99.90;;;;;;5126121;27;20248;-59
2022/05/03 07:28:03;;;;;;;19.27;14.37;;;9.40;99.90;;;;;;5125936;27;20237;-59
2022/05/03 07:30:36;;;;;;;19.00;14.13;;;9.50;99.90;;;;;;5125784;27;20243;-58
2022/05/03 07:33:04;;;;;;;15.27;13.27;;;9.50;99.90;;;;;;5124075;27;20275;-59
2022/05/03 07:35:33;;;;;;;17.30;13.07;;;9.50;99.90;;;;;;5125091;27;20241;-60
2022/05/03 07:38:01;;;;;;;19.90;12.53;;;9.60;99.90;;;;;;5124888;27;20550;-59
2022/05/03 07:40:30;;;;;;;18.23;11.73;;;9.70;99.90;;;;;;5124705;27;20245;-59
2022/05/03 07:42:58;;;;;;;17.50;11.40;;;9.80;99.90;;;;;;5123048;27;20804;-59
2022/05/03 07:45:27;;;;;;;16.73;10.57;;;9.90;99.90;;;;;;5123995;27;20742;-60
2022/05/03 07:48:03;;;;;;;18.63;10.03;;;10.00;99.90;;;;;;5123896;27;20656;-60
2022/05/03 07:50:31;;;;;;;20.27;10.80;;;10.10;99.90;;;;;;5123967;27;20229;-58
2022/05/03 07:52:59;;;;;;;13.73;9.23;;;10.10;99.90;;;;;;5123560;27;20302;-60
2022/05/03 07:55:27;;;;;;;15.43;8.20;;;10.30;99.90;;;;;;5124754;27;20245;-59
2022/05/03 07:57:56;;;;;;;13.47;7.40;;;10.20;99.90;;;;;;5125596;27;20234;-59
2022/05/03 08:00:24;;;;;;;15.67;7.90;;;10.10;99.90;;;;;;5124605;27;20580;-60
2022/05/03 08:02:52;;;;;;;13.60;6.70;;;10.10;99.90;;;;;;5124306;27;20246;-59
2022/05/03 08:05:22;;;;;;;14.10;6.60;;;10.00;99.90;;;;;;5124209;27;20238;-59
2022/05/03 08:07:50;;;;;;;12.30;5.67;;;10.00;99.90;;;;;;5123951;27;20796;-59
2022/05/03 08:10:18;;;;;;;11.80;4.93;;;9.90;99.90;;;;;;5123347;27;20238;-58
2022/05/03 08:12:51;;;;;;;14.13;5.57;;;9.90;99.90;;;;;;5123132;27;20241;-58
2022/05/03 08:15:20;;;;;;;15.30;5.50;;;9.90;99.90;;;;;;5124728;27;20706;-58
2022/05/03 08:17:49;;;;;;;11.60;4.73;;;10.00;99.90;;;;;;5125078;27;20237;-58
2022/05/03 08:20:17;;;;;;;10.23;4.93;;;10.10;99.90;;;;;;5124658;27;20323;-58
2022/05/03 08:22:47;;;;;;;13.00;4.87;;;10.20;99.90;;;;;;5124065;27;20258;-58
2022/05/03 08:25:15;;;;;;;13.47;4.63;;;10.30;99.90;;;;;;5123031;27;20333;-59
2022/05/03 08:27:44;;;;;;;13.50;4.73;;;10.40;99.90;;;;;;5123686;27;20713;-59
2022/05/03 08:30:13;;;;;;;16.57;4.60;;;10.50;99.90;;;;;;5123075;27;20235;-59
2022/05/03 08:32:41;;;;;;;12.33;4.40;;;10.80;99.90;;;;;;5122905;27;20237;-60
2022/05/03 08:35:09;;;;;;;11.77;4.70;;;11.10;99.90;;;;;;5124748;27;20317;-59
2022/05/03 08:43:09;;;;;;;13.30;3.93;;;11.30;99.90;;;;;;5122541;27;20226;-59
2022/05/03 08:45:37;;;;;;;16.50;4.17;;;11.20;99.90;;;;;;5123257;27;20235;-58
2022/05/03 08:48:07;;;;;;;13.73;3.77;;;11.20;99.90;;;;;;5123007;27;20242;-60
2022/05/03 08:50:36;;;;;;;10.53;3.40;;;11.20;99.90;;;;;;5124678;27;20241;-59
2022/05/03 08:53:06;;;;;;;13.77;3.10;;;11.30;99.90;;;;;;5122907;27;20288;-60
2022/05/03 08:55:36;;;;;;;12.47;2.87;;;11.30;99.90;;;;;;5122526;27;20238;-60
2022/05/03 08:58:04;;;;;;;11.73;3.30;;;11.40;99.90;;;;;;5122924;27;20287;-59
2022/05/03 09:00:33;;;;;;;9.37;3.03;;;11.70;99.90;;;;;;5122863;27;20230;-58
2022/05/03 09:03:01;;;;;;;8.63;2.50;;;11.80;99.90;;;;;;5121810;27;20709;-59
2022/05/03 09:05:30;;;;;;;11.47;3.40;;;11.70;99.90;;;;;;5123183;27;20239;-59
2022/05/03 09:08:00;;;;;;;10.23;3.37;;;11.60;99.90;;;;;;5122688;27;20271;-59
2022/05/03 09:10:31;;;;;;;11.47;3.37;;;11.70;99.90;;;;;;5123048;27;20693;-59
2022/05/03 09:13:22;;;;;;;8.40;2.90;;;11.70;99.90;;;;;;5122700;27;20247;-58
2022/05/03 09:15:55;;;;;;;10.43;3.03;;;11.80;99.90;;;;;;5123878;27;20246;-58
2022/05/03 09:18:25;;;;;;;12.90;3.03;;;11.90;99.90;;;;;;5123359;27;20334;-59
2022/05/03 09:23:50;;;;;;;11.27;3.23;;;12.20;99.90;;;;;;5123350;27;20263;-60
2022/05/03 09:26:20;;;;;;;6.40;2.33;;;12.40;99.90;;;;;;5122738;27;20302;-57
2022/05/03 09:28:52;;;;;;;6.90;2.50;;;12.40;99.90;;;;;;5122961;27;20753;-58
2022/05/03 09:31:32;;;;;;;9.37;2.37;;;12.50;99.90;;;;;;5123462;27;20243;-58
2022/05/03 09:34:01;;;;;;;7.77;2.67;;;12.50;99.90;;;;;;5122797;27;20259;-60
2022/05/03 09:36:41;;;;;;;9.50;3.00;;;12.50;99.90;;;;;;5122544;27;20391;-58
2022/05/03 09:39:31;;;;;;;10.00;3.20;;;12.60;99.90;;;;;;5121747;27;20740;-59
2022/05/03 09:42:07;;;;;;;8.03;2.90;;;12.60;99.90;;;;;;5121375;27;20236;-59
2022/05/03 09:44:37;;;;;;;9.67;2.90;;;12.50;99.90;;;;;;5101527;27;20236;-59
2022/05/03 09:47:11;;;;;;;8.77;2.50;;;12.50;99.90;;;;;;5118567;27;20775;-59
2022/05/03 09:49:42;;;;;;;8.53;2.80;;;12.40;99.90;;;;;;5121987;27;20236;-60
2022/05/03 09:52:27;;;;;;;9.10;2.73;;;12.50;99.90;;;;;;5121556;27;20736;-61
2022/05/03 09:54:59;;;;;;;12.17;2.73;;;12.90;99.90;;;;;;5121927;27;20235;-58
2022/05/03 09:57:30;;;;;;;6.40;2.47;;;14.10;99.90;;;;;;5121886;27;20250;-58
2022/05/03 10:00:00;;;;;;;8.33;2.87;;;14.90;99.90;;;;;;5121686;27;20241;-58
2022/05/03 10:02:32;;;;;;;9.40;2.60;;;14.90;99.90;;;;;;5121146;27;20243;-58
2022/05/03 10:05:00;;;;;;;7.17;2.37;;;14.70;99.90;;;;;;5121969;27;20301;-59
2022/05/03 10:07:30;;;;;;;10.73;2.47;;;14.70;99.90;;;;;;5123580;27;20584;-58
2022/05/03 10:09:58;;;;;;;8.00;2.53;;;14.90;99.90;;;;;;5121825;27;20294;-61
2022/05/03 10:12:26;;;;;;;7.33;2.73;;;15.10;99.90;;;;;;5121344;27;20236;-58
2022/05/03 10:14:54;;;;;;;7.57;2.70;;;14.80;99.90;;;;;;5121222;27;20249;-59
2022/05/03 10:20:39;;;;;;;9.13;2.87;;;14.30;99.90;;;;;;5120971;27;20342;-60
2022/05/03 10:23:20;;;;;;;8.63;2.37;;;14.10;99.90;;;;;;5120342;27;20246;-59
2022/05/03 10:25:52;;;;;;;7.70;2.60;;;14.10;99.90;;;;;;5119817;27;20329;-59
2022/05/03 10:28:21;;;;;;;7.37;2.40;;;14.10;99.90;;;;;;5121042;27;20244;-59
2022/05/03 10:31:16;;;;;;;7.97;2.63;;;13.90;99.90;;;;;;5120717;27;20249;-58
2022/05/03 10:33:45;;;;;;;7.73;2.40;;;13.80;99.90;;;;;;5072426;27;20248;-60
2022/05/03 10:36:43;;;;;;;7.57;2.37;;;14.10;99.90;;;;;;5118925;27;20800;-59
2022/05/03 10:39:28;;;;;;;8.27;2.77;;;14.30;99.90;;;;;;5120414;27;20247;-59
2022/05/03 10:41:59;;;;;;;11.23;2.60;;;14.30;99.90;;;;;;5121127;27;20248;-61
2022/05/03 10:44:44;;;;;;;7.37;2.33;;;14.70;99.90;;;;;;5120993;27;20233;-58
2022/05/03 10:47:14;;;;;;;5.97;2.30;;;14.80;99.90;;;;;;5121356;27;20305;-59
2022/05/03 10:50:20;;;;;;;7.77;2.40;;;14.50;99.90;;;;;;5122764;27;20351;-61
2022/05/03 10:53:18;;;;;;;6.07;2.40;;;14.50;99.90;;;;;;5124641;27;20271;-58
2022/05/03 10:56:18;;;;;;;7.43;1.90;;;14.70;99.90;;;;;;5108013;27;20233;-60
2022/05/03 10:59:06;;;;;;;7.70;2.40;;;14.80;99.90;;;;;;5105027;27;20329;-61
2022/05/03 11:02:06;;;;;;;9.67;2.50;;;15.00;99.90;;;;;;5094355;27;20241;-59
2022/05/03 11:04:36;;;;;;;7.13;2.10;;;14.80;99.90;;;;;;5121066;27;20696;-60
2022/05/03 11:07:05;;;;;;;6.47;2.20;;;15.10;99.90;;;;;;5125668;27;20518;-58
2022/05/03 11:09:35;;;;;;;8.63;2.30;;;15.10;99.90;;;;;;5125226;27;20233;-58
2022/05/03 11:12:07;;;;;;;8.33;2.43;;;15.10;99.90;;;;;;5124542;27;20584;-60
2022/05/03 11:14:49;;;;;;;7.07;2.30;;;14.90;99.90;;;;;;5125463;27;20331;-60
2022/05/03 11:17:18;;;;;;;6.17;2.07;;;14.70;99.90;;;;;;5124494;27;20723;-59
2022/05/03 11:19:50;;;;;;;8.33;2.40;;;14.60;99.90;;;;;;5126026;27;20289;-60
2022/05/03 11:22:21;;;;;;;9.87;2.60;;;14.70;99.90;;;;;;5124651;27;20244;-58
2022/05/03 11:24:52;;;;;;;5.63;1.87;;;14.60;99.90;;;;;;5126195;27;20272;-58
2022/05/03 11:27:21;;;;;;;7.20;2.00;;;14.90;99.90;;;;;;5124999;27;20240;-58
2022/05/03 11:29:51;;;;;;;5.57;1.93;;;15.40;99.90;;;;;;5124518;27;20225;-58
2022/05/03 11:32:29;;;;;;;7.07;2.13;;;15.80;99.90;;;;;;5125108;27;20321;-58
2022/05/03 11:35:06;;;;;;;7.50;2.40;;;16.00;99.90;;;;;;5124385;27;20268;-58
2022/05/03 11:37:35;;;;;;;9.13;2.70;;;15.70;99.90;;;;;;5124788;27;20340;-59
2022/05/03 11:40:08;;;;;;;9.53;2.53;;;15.10;99.90;;;;;;5124597;27;20225;-59
2022/05/03 11:42:41;;;;;;;8.63;2.20;;;14.80;99.90;;;;;;5123965;27;20245;-58
2022/05/03 11:45:11;;;;;;;4.70;1.80;;;14.80;99.90;;;;;;5124086;27;20233;-58
2022/05/03 11:47:41;;;;;;;5.40;1.60;;;14.70;99.90;;;;;;5124476;27;20229;-59
2022/05/03 11:50:12;;;;;;;6.03;1.50;;;15.00;99.90;;;;;;5124502;27;20240;-59
2022/05/03 11:58:16;;;;;;;7.47;2.10;;;15.90;99.90;;;;;;5123417;27;20233;-59
2022/05/03 12:00:46;;;;;;;8.23;2.20;;;15.20;99.90;;;;;;5123203;27;20247;-60
2022/05/03 12:03:15;;;;;;;7.80;1.93;;;15.00;99.90;;;;;;5123158;27;20237;-60
2022/05/03 12:05:59;;;;;;;6.73;2.23;;;15.00;99.90;;;;;;5124800;27;20712;-59
2022/05/03 12:08:29;;;;;;;5.40;1.80;;;14.90;99.90;;;;;;5123000;27;20633;-60
2022/05/03 12:10:59;;;;;;;9.27;2.10;;;14.80;99.90;;;;;;5125051;27;20680;-59
2022/05/03 12:13:33;;;;;;;4.60;1.80;;;14.60;99.90;;;;;;5124579;27;20738;-59
2022/05/03 12:16:15;;;;;;;5.30;1.57;;;14.50;99.90;;;;;;5124640;27;20310;-59
2022/05/03 12:18:46;;;;;;;6.23;1.77;;;14.60;99.90;;;;;;5123056;27;20244;-58
2022/05/03 12:21:17;;;;;;;6.43;1.70;;;14.90;99.90;;;;;;5123095;27;20264;-60
2022/05/03 12:23:47;;;;;;;5.80;1.80;;;14.70;99.90;;;;;;5122550;27;20239;-61
2022/05/03 12:26:24;;;;;;;6.43;2.07;;;14.50;99.90;;;;;;5122935;27;20236;-59
2022/05/03 12:28:55;;;;;;;5.53;1.80;;;14.30;99.90;;;;;;5123835;27;20325;-58
2022/05/03 12:31:28;;;;;;;5.23;2.00;;;14.40;99.90;;;;;;5122798;27;20289;-58
2022/05/03 12:33:58;;;;;;;6.20;1.97;;;14.80;99.90;;;;;;5123422;27;20331;-59
2022/05/03 12:36:36;;;;;;;6.93;2.27;;;15.00;99.90;;;;;;5123467;27;20352;-60
2022/05/03 12:39:14;;;;;;;5.23;1.60;;;15.00;99.90;;;;;;5123185;27;20916;-59
2022/05/03 12:41:59;;;;;;;8.00;1.70;;;15.40;99.90;;;;;;5124389;27;20269;-58
2022/05/03 12:44:28;;;;;;;7.77;1.63;;;15.60;99.90;;;;;;5123834;27;20277;-58
2022/05/03 12:47:04;;;;;;;5.83;1.77;;;15.80;99.90;;;;;;5123990;27;20240;-61
2022/05/03 12:49:33;;;;;;;6.30;2.00;;;16.00;99.90;;;;;;5114014;27;20312;-58
2022/05/03 12:52:02;;;;;;;6.43;1.60;;;16.50;99.90;;;;;;5123905;27;20777;-59
2022/05/03 12:54:33;;;;;;;10.27;2.50;;;16.90;99.90;;;;;;5123003;27;20233;-58
2022/05/03 12:59:49;;;;;;;9.73;2.73;;;15.60;99.90;;;;;;5122375;27;20268;-59
2022/05/03 13:02:19;;;;;;;8.80;2.40;;;15.40;99.90;;;;;;5103197;27;20251;-59
2022/05/03 13:04:47;;;;;;;8.43;2.57;;;15.40;99.90;;;;;;5122512;27;20781;-59
2022/05/03 13:07:15;;;;;;;7.17;2.40;;;15.30;99.90;;;;;;5122393;27;20351;-59
2022/05/03 13:09:44;;;;;;;8.10;2.67;;;15.00;99.90;;;;;;5122819;27;20337;-59
2022/05/03 13:12:13;;;;;;;11.80;2.97;;;15.00;99.90;;;;;;5122575;27;20233;-62
2022/05/03 13:14:42;;;;;;;8.20;2.20;;;14.80;99.90;;;;;;5123122;27;20720;-61
2022/05/03 13:17:10;;;;;;;8.87;2.47;;;14.70;99.90;;;;;;5122843;27;20229;-61
2022/05/03 13:19:38;;;;;;;9.40;2.73;;;14.70;99.90;;;;;;5122866;27;20286;-62
2022/05/03 13:22:06;;;;;;;8.83;2.63;;;14.60;99.90;;;;;;5122784;27;20233;-59
2022/05/03 13:24:34;;;;;;;8.40;2.80;;;14.50;99.90;;;;;;5122940;27;20236;-60
2022/05/03 13:27:03;;;;;;;11.33;3.00;;;14.50;99.90;;;;;;5123591;27;20232;-60
2022/05/03 13:29:33;;;;;;;7.83;2.77;;;14.40;99.90;;;;;;5122736;27;20244;-59
2022/05/03 13:32:02;;;;;;;9.80;2.50;;;14.20;99.90;;;;;;5121691;27;20229;-60
2022/05/03 13:34:30;;;;;;;8.17;2.57;;;13.80;99.90;;;;;;5121874;27;20596;-59
2022/05/03 13:42:29;;;;;;;8.43;2.43;;;13.80;99.90;;;;;;5115121;27;20236;-60
2022/05/03 13:44:59;;;;;;;12.15;3.28;;;13.80;99.90;;;;;;5105700;27;20448;-62
2022/05/03 13:47:27;;;;;;;9.50;2.53;;;13.70;99.90;;;;;;5115678;27;20241;-60
2022/05/03 13:49:55;;;;;;;13.63;2.80;;;13.70;99.90;;;;;;5115808;27;21029;-61
2022/05/03 13:52:26;;;;;;;7.33;2.80;;;13.70;99.90;;;;;;5115816;27;20237;-60
2022/05/03 13:54:54;;;;;;;8.87;3.03;;;14.00;99.90;;;;;;5116916;27;20236;-59
2022/05/03 13:57:22;;;;;;;9.07;2.50;;;14.20;99.90;;;;;;5116377;27;20720;-61